sensor_id;sensor_type;location;lat;lon;timestamp;P1;durP1;ratioP1;P2;durP2;ratioP2
67904;SDS011;54709;43.614;1.576;2023-04-03T00:02:01;5.95;;;2.63;;
67904;SDS011;54709;43.614;1.576;2023-04-03T00:04:27;4.95;;;2.50;;
67904;SDS011;54709;43.614;1.576;2023-04-03T00:06:52;6.05;;;2.33;;
67904;SDS011;54709;43.614;1.576;2023-04-03T00:09:18;5.10;;;2.47;;
67904;SDS011;54709;43.614;1.576;2023-04-03T00:11:43;5.55;;;2.40;;
67904;SDS011;54709;43.614;1.576;2023-04-03T00:14:08;7.07;;;2.78;;
67904;SDS011;54709;43.614;1.576;2023-04-03T00:16:34;4.40;;;2.58;;
67904;SDS011;54709;43.614;1.576;2023-04-03T00:18:59;4.75;;;2.83;;
67904;SDS011;54709;43.614;1.576;2023-04-03T00:21:25;5.13;;;2.45;;
67904;SDS011;54709;43.614;1.576;2023-04-03T00:23:51;4.75;;;2.28;;
67904;SDS011;54709;43.614;1.576;2023-04-03T00:26:16;4.50;;;2.42;;
67904;SDS011;54709;43.614;1.576;2023-04-03T00:28:42;5.60;;;2.40;;
67904;SDS011;54709;43.614;1.576;2023-04-03T00:31:07;5.18;;;2.40;;
67904;SDS011;54709;43.614;1.576;2023-04-03T00:33:32;5.97;;;2.53;;
67904;SDS011;54709;43.614;1.576;2023-04-03T00:35:58;5.32;;;2.40;;
67904;SDS011;54709;43.614;1.576;2023-04-03T00:38:23;8.82;;;2.60;;
67904;SDS011;54709;43.614;1.576;2023-04-03T00:40:49;5.05;;;2.67;;
67904;SDS011;54709;43.614;1.576;2023-04-03T00:43:19;5.50;;;2.88;;
67904;SDS011;54709;43.614;1.576;2023-04-03T00:45:47;7.35;;;2.80;;
67904;SDS011;54709;43.614;1.576;2023-04-03T00:48:15;5.43;;;2.45;;
67904;SDS011;54709;43.614;1.576;2023-04-03T00:50:44;5.20;;;2.40;;
67904;SDS011;54709;43.614;1.576;2023-04-03T00:53:14;4.25;;;2.58;;
67904;SDS011;54709;43.614;1.576;2023-04-03T00:55:42;4.78;;;2.53;;
67904;SDS011;54709;43.614;1.576;2023-04-03T00:58:08;3.60;;;2.33;;
67904;SDS011;54709;43.614;1.576;2023-04-03T01:00:34;5.90;;;2.60;;
67904;SDS011;54709;43.614;1.576;2023-04-03T01:03:02;6.68;;;2.72;;
67904;SDS011;54709;43.614;1.576;2023-04-03T01:05:28;4.13;;;2.42;;
67904;SDS011;54709;43.614;1.576;2023-04-03T01:07:53;3.65;;;2.90;;
67904;SDS011;54709;43.614;1.576;2023-04-03T01:10:19;4.30;;;2.50;;
67904;SDS011;54709;43.614;1.576;2023-04-03T01:12:46;3.28;;;2.50;;
67904;SDS011;54709;43.614;1.576;2023-04-03T01:25:35;7.03;;;2.75;;
67904;SDS011;54709;43.614;1.576;2023-04-03T01:28:03;4.90;;;2.30;;
67904;SDS011;54709;43.614;1.576;2023-04-03T01:30:31;4.40;;;2.47;;
67904;SDS011;54709;43.614;1.576;2023-04-03T01:32:58;5.63;;;2.63;;
67904;SDS011;54709;43.614;1.576;2023-04-03T01:35:24;3.72;;;2.78;;
67904;SDS011;54709;43.614;1.576;2023-04-03T01:37:50;5.28;;;2.58;;
67904;SDS011;54709;43.614;1.576;2023-04-03T01:40:15;5.03;;;2.53;;
67904;SDS011;54709;43.614;1.576;2023-04-03T01:42:40;4.32;;;2.47;;
67904;SDS011;54709;43.614;1.576;2023-04-03T01:45:06;4.63;;;2.47;;
67904;SDS011;54709;43.614;1.576;2023-04-03T01:47:31;4.03;;;2.88;;
67904;SDS011;54709;43.614;1.576;2023-04-03T01:49:57;5.88;;;2.58;;
67904;SDS011;54709;43.614;1.576;2023-04-03T01:52:22;4.95;;;2.90;;
67904;SDS011;54709;43.614;1.576;2023-04-03T01:54:48;3.33;;;2.80;;
67904;SDS011;54709;43.614;1.576;2023-04-03T01:57:13;5.53;;;2.90;;
67904;SDS011;54709;43.614;1.576;2023-04-03T01:59:40;6.22;;;2.83;;
67904;SDS011;54709;43.614;1.576;2023-04-03T02:02:05;5.07;;;2.72;;
67904;SDS011;54709;43.614;1.576;2023-04-03T02:04:31;4.63;;;2.92;;
67904;SDS011;54709;43.614;1.576;2023-04-03T02:06:56;4.35;;;2.80;;
67904;SDS011;54709;43.614;1.576;2023-04-03T02:09:21;6.57;;;3.05;;
67904;SDS011;54709;43.614;1.576;2023-04-03T02:11:47;5.13;;;2.70;;
67904;SDS011;54709;43.614;1.576;2023-04-03T02:14:12;4.13;;;3.00;;
67904;SDS011;54709;43.614;1.576;2023-04-03T02:16:38;6.38;;;3.10;;
67904;SDS011;54709;43.614;1.576;2023-04-03T02:19:03;4.40;;;2.80;;
67904;SDS011;54709;43.614;1.576;2023-04-03T02:21:29;4.80;;;2.97;;
67904;SDS011;54709;43.614;1.576;2023-04-03T02:23:54;6.20;;;3.17;;
67904;SDS011;54709;43.614;1.576;2023-04-03T02:26:20;4.45;;;3.15;;
67904;SDS011;54709;43.614;1.576;2023-04-03T02:28:46;7.80;;;3.13;;
67904;SDS011;54709;43.614;1.576;2023-04-03T02:31:11;5.57;;;3.03;;
67904;SDS011;54709;43.614;1.576;2023-04-03T02:33:37;5.85;;;2.97;;
67904;SDS011;54709;43.614;1.576;2023-04-03T02:36:06;7.28;;;3.30;;
67904;SDS011;54709;43.614;1.576;2023-04-03T02:38:32;4.57;;;3.05;;
67904;SDS011;54709;43.614;1.576;2023-04-03T02:41:01;5.45;;;2.88;;
67904;SDS011;54709;43.614;1.576;2023-04-03T02:43:33;5.00;;;2.70;;
67904;SDS011;54709;43.614;1.576;2023-04-03T02:45:59;5.03;;;2.75;;
67904;SDS011;54709;43.614;1.576;2023-04-03T02:48:24;5.63;;;2.85;;
67904;SDS011;54709;43.614;1.576;2023-04-03T02:50:50;5.95;;;3.40;;
67904;SDS011;54709;43.614;1.576;2023-04-03T02:53:16;6.22;;;3.40;;
67904;SDS011;54709;43.614;1.576;2023-04-03T02:55:41;6.05;;;3.17;;
67904;SDS011;54709;43.614;1.576;2023-04-03T02:58:07;6.88;;;3.13;;
67904;SDS011;54709;43.614;1.576;2023-04-03T03:00:32;5.75;;;3.20;;
67904;SDS011;54709;43.614;1.576;2023-04-03T03:02:58;5.68;;;3.25;;
67904;SDS011;54709;43.614;1.576;2023-04-03T03:05:23;4.47;;;3.13;;
67904;SDS011;54709;43.614;1.576;2023-04-03T03:07:49;4.75;;;3.10;;
67904;SDS011;54709;43.614;1.576;2023-04-03T03:10:14;5.35;;;3.25;;
67904;SDS011;54709;43.614;1.576;2023-04-03T03:12:40;5.28;;;3.38;;
67904;SDS011;54709;43.614;1.576;2023-04-03T03:15:06;4.78;;;3.33;;
67904;SDS011;54709;43.614;1.576;2023-04-03T03:17:32;5.22;;;3.08;;
67904;SDS011;54709;43.614;1.576;2023-04-03T03:19:57;6.85;;;3.58;;
67904;SDS011;54709;43.614;1.576;2023-04-03T03:22:22;7.07;;;3.58;;
67904;SDS011;54709;43.614;1.576;2023-04-03T03:24:48;7.90;;;3.40;;
67904;SDS011;54709;43.614;1.576;2023-04-03T03:27:13;7.75;;;3.35;;
67904;SDS011;54709;43.614;1.576;2023-04-03T03:29:38;5.25;;;3.25;;
67904;SDS011;54709;43.614;1.576;2023-04-03T03:32:04;4.47;;;3.40;;
67904;SDS011;54709;43.614;1.576;2023-04-03T03:34:29;5.53;;;3.53;;
67904;SDS011;54709;43.614;1.576;2023-04-03T03:36:55;4.03;;;3.30;;
67904;SDS011;54709;43.614;1.576;2023-04-03T03:39:20;4.30;;;3.50;;
67904;SDS011;54709;43.614;1.576;2023-04-03T03:41:46;8.18;;;3.30;;
67904;SDS011;54709;43.614;1.576;2023-04-03T03:44:11;4.18;;;3.30;;
67904;SDS011;54709;43.614;1.576;2023-04-03T03:46:36;5.07;;;3.33;;
67904;SDS011;54709;43.614;1.576;2023-04-03T03:49:02;5.80;;;3.47;;
67904;SDS011;54709;43.614;1.576;2023-04-03T03:51:27;4.82;;;3.30;;
67904;SDS011;54709;43.614;1.576;2023-04-03T03:53:53;5.93;;;3.67;;
67904;SDS011;54709;43.614;1.576;2023-04-03T03:56:18;5.85;;;3.45;;
67904;SDS011;54709;43.614;1.576;2023-04-03T03:58:43;6.03;;;3.33;;
67904;SDS011;54709;43.614;1.576;2023-04-03T04:01:09;6.13;;;3.80;;
67904;SDS011;54709;43.614;1.576;2023-04-03T04:03:34;4.47;;;3.22;;
67904;SDS011;54709;43.614;1.576;2023-04-03T04:06:00;3.80;;;3.40;;
67904;SDS011;54709;43.614;1.576;2023-04-03T04:08:25;4.47;;;3.53;;
67904;SDS011;54709;43.614;1.576;2023-04-03T04:10:50;7.13;;;3.58;;
67904;SDS011;54709;43.614;1.576;2023-04-03T04:13:16;4.85;;;3.47;;
67904;SDS011;54709;43.614;1.576;2023-04-03T04:15:42;5.72;;;3.78;;
67904;SDS011;54709;43.614;1.576;2023-04-03T04:18:07;6.05;;;3.85;;
67904;SDS011;54709;43.614;1.576;2023-04-03T04:20:33;5.68;;;3.65;;
67904;SDS011;54709;43.614;1.576;2023-04-03T04:22:58;5.00;;;3.53;;
67904;SDS011;54709;43.614;1.576;2023-04-03T04:25:24;4.53;;;3.63;;
67904;SDS011;54709;43.614;1.576;2023-04-03T04:27:49;5.50;;;3.83;;
67904;SDS011;54709;43.614;1.576;2023-04-03T04:30:15;5.65;;;3.63;;
67904;SDS011;54709;43.614;1.576;2023-04-03T04:32:40;5.68;;;4.13;;
67904;SDS011;54709;43.614;1.576;2023-04-03T04:35:06;6.78;;;4.40;;
67904;SDS011;54709;43.614;1.576;2023-04-03T04:37:31;8.77;;;4.18;;
67904;SDS011;54709;43.614;1.576;2023-04-03T04:39:57;6.18;;;4.40;;
67904;SDS011;54709;43.614;1.576;2023-04-03T04:42:22;6.47;;;4.22;;
67904;SDS011;54709;43.614;1.576;2023-04-03T04:44:48;6.72;;;4.20;;
67904;SDS011;54709;43.614;1.576;2023-04-03T04:47:13;7.55;;;4.68;;
67904;SDS011;54709;43.614;1.576;2023-04-03T04:49:39;5.35;;;4.10;;
67904;SDS011;54709;43.614;1.576;2023-04-03T04:52:04;7.22;;;4.07;;
67904;SDS011;54709;43.614;1.576;2023-04-03T04:54:30;6.70;;;4.32;;
67904;SDS011;54709;43.614;1.576;2023-04-03T04:56:55;5.47;;;4.65;;
67904;SDS011;54709;43.614;1.576;2023-04-03T04:59:21;5.18;;;4.43;;
67904;SDS011;54709;43.614;1.576;2023-04-03T05:01:46;6.60;;;3.90;;
67904;SDS011;54709;43.614;1.576;2023-04-03T05:04:12;7.13;;;4.40;;
67904;SDS011;54709;43.614;1.576;2023-04-03T05:06:40;7.28;;;4.80;;
67904;SDS011;54709;43.614;1.576;2023-04-03T05:09:06;5.70;;;4.50;;
67904;SDS011;54709;43.614;1.576;2023-04-03T05:11:31;6.07;;;4.97;;
67904;SDS011;54709;43.614;1.576;2023-04-03T05:13:57;5.03;;;4.30;;
67904;SDS011;54709;43.614;1.576;2023-04-03T05:16:22;5.63;;;4.70;;
67904;SDS011;54709;43.614;1.576;2023-04-03T05:18:47;5.50;;;4.13;;
67904;SDS011;54709;43.614;1.576;2023-04-03T05:21:13;4.80;;;4.18;;
67904;SDS011;54709;43.614;1.576;2023-04-03T05:23:38;6.32;;;4.18;;
67904;SDS011;54709;43.614;1.576;2023-04-03T05:26:04;7.28;;;4.55;;
67904;SDS011;54709;43.614;1.576;2023-04-03T05:28:29;6.18;;;4.63;;
67904;SDS011;54709;43.614;1.576;2023-04-03T05:30:58;5.85;;;4.10;;
67904;SDS011;54709;43.614;1.576;2023-04-03T05:33:24;7.13;;;4.40;;
67904;SDS011;54709;43.614;1.576;2023-04-03T05:35:50;6.28;;;4.68;;
67904;SDS011;54709;43.614;1.576;2023-04-03T05:38:15;7.25;;;4.68;;
67904;SDS011;54709;43.614;1.576;2023-04-03T05:40:41;6.32;;;4.10;;
67904;SDS011;54709;43.614;1.576;2023-04-03T05:43:06;6.10;;;4.18;;
67904;SDS011;54709;43.614;1.576;2023-04-03T05:45:32;7.60;;;4.60;;
67904;SDS011;54709;43.614;1.576;2023-04-03T05:47:57;5.43;;;4.07;;
67904;SDS011;54709;43.614;1.576;2023-04-03T05:50:23;5.10;;;4.07;;
67904;SDS011;54709;43.614;1.576;2023-04-03T05:52:49;5.18;;;4.43;;
67904;SDS011;54709;43.614;1.576;2023-04-03T05:55:15;5.28;;;4.00;;
67904;SDS011;54709;43.614;1.576;2023-04-03T05:57:40;7.15;;;4.38;;
67904;SDS011;54709;43.614;1.576;2023-04-03T06:00:07;6.07;;;4.47;;
67904;SDS011;54709;43.614;1.576;2023-04-03T06:02:34;7.07;;;4.40;;
67904;SDS011;54709;43.614;1.576;2023-04-03T06:05:00;6.80;;;4.60;;
67904;SDS011;54709;43.614;1.576;2023-04-03T06:07:26;9.68;;;4.70;;
67904;SDS011;54709;43.614;1.576;2023-04-03T06:09:53;5.93;;;4.20;;
67904;SDS011;54709;43.614;1.576;2023-04-03T06:12:21;7.82;;;4.65;;
67904;SDS011;54709;43.614;1.576;2023-04-03T06:14:46;7.18;;;4.40;;
67904;SDS011;54709;43.614;1.576;2023-04-03T06:17:12;7.35;;;4.60;;
67904;SDS011;54709;43.614;1.576;2023-04-03T06:19:38;5.97;;;4.50;;
67904;SDS011;54709;43.614;1.576;2023-04-03T06:22:04;5.30;;;4.60;;
67904;SDS011;54709;43.614;1.576;2023-04-03T06:24:29;8.55;;;4.90;;
67904;SDS011;54709;43.614;1.576;2023-04-03T06:26:56;5.95;;;4.43;;
67904;SDS011;54709;43.614;1.576;2023-04-03T06:29:22;5.03;;;4.15;;
67904;SDS011;54709;43.614;1.576;2023-04-03T06:31:48;5.05;;;4.50;;
67904;SDS011;54709;43.614;1.576;2023-04-03T06:34:14;5.53;;;4.05;;
67904;SDS011;54709;43.614;1.576;2023-04-03T06:36:40;5.72;;;4.50;;
67904;SDS011;54709;43.614;1.576;2023-04-03T06:39:06;5.57;;;4.47;;
67904;SDS011;54709;43.614;1.576;2023-04-03T06:41:31;10.25;;;4.80;;
67904;SDS011;54709;43.614;1.576;2023-04-03T06:43:57;6.90;;;4.50;;
67904;SDS011;54709;43.614;1.576;2023-04-03T06:46:23;5.80;;;4.72;;
67904;SDS011;54709;43.614;1.576;2023-04-03T06:48:50;8.75;;;4.50;;
67904;SDS011;54709;43.614;1.576;2023-04-03T06:51:17;5.88;;;4.30;;
67904;SDS011;54709;43.614;1.576;2023-04-03T06:53:51;7.85;;;4.13;;
67904;SDS011;54709;43.614;1.576;2023-04-03T06:56:17;7.20;;;4.93;;
67904;SDS011;54709;43.614;1.576;2023-04-03T06:58:43;5.47;;;4.32;;
67904;SDS011;54709;43.614;1.576;2023-04-03T07:01:10;7.38;;;4.80;;
67904;SDS011;54709;43.614;1.576;2023-04-03T07:03:37;5.57;;;4.45;;
67904;SDS011;54709;43.614;1.576;2023-04-03T07:06:03;9.10;;;4.85;;
67904;SDS011;54709;43.614;1.576;2023-04-03T07:08:29;9.75;;;5.03;;
67904;SDS011;54709;43.614;1.576;2023-04-03T07:10:55;7.15;;;4.90;;
67904;SDS011;54709;43.614;1.576;2023-04-03T07:13:21;6.43;;;5.00;;
67904;SDS011;54709;43.614;1.576;2023-04-03T07:15:47;5.28;;;4.78;;
67904;SDS011;54709;43.614;1.576;2023-04-03T07:18:13;8.30;;;4.93;;
67904;SDS011;54709;43.614;1.576;2023-04-03T07:20:38;8.40;;;5.32;;
67904;SDS011;54709;43.614;1.576;2023-04-03T07:23:04;9.02;;;5.53;;
67904;SDS011;54709;43.614;1.576;2023-04-03T07:25:29;6.70;;;4.78;;
67904;SDS011;54709;43.614;1.576;2023-04-03T07:27:56;6.65;;;4.80;;
67904;SDS011;54709;43.614;1.576;2023-04-03T07:30:22;7.07;;;5.03;;
67904;SDS011;54709;43.614;1.576;2023-04-03T07:32:48;8.65;;;4.97;;
67904;SDS011;54709;43.614;1.576;2023-04-03T07:35:13;7.80;;;5.60;;
67904;SDS011;54709;43.614;1.576;2023-04-03T07:37:39;8.80;;;5.20;;
67904;SDS011;54709;43.614;1.576;2023-04-03T07:40:05;9.10;;;5.32;;
67904;SDS011;54709;43.614;1.576;2023-04-03T07:42:31;7.88;;;5.10;;
67904;SDS011;54709;43.614;1.576;2023-04-03T07:44:57;5.68;;;4.63;;
67904;SDS011;54709;43.614;1.576;2023-04-03T07:47:22;6.32;;;4.70;;
67904;SDS011;54709;43.614;1.576;2023-04-03T07:49:48;7.18;;;4.57;;
67904;SDS011;54709;43.614;1.576;2023-04-03T07:52:13;5.65;;;4.70;;
67904;SDS011;54709;43.614;1.576;2023-04-03T07:54:40;6.80;;;4.75;;
67904;SDS011;54709;43.614;1.576;2023-04-03T07:57:06;7.97;;;4.50;;
67904;SDS011;54709;43.614;1.576;2023-04-03T07:59:31;6.65;;;4.50;;
67904;SDS011;54709;43.614;1.576;2023-04-03T08:01:57;8.75;;;4.75;;
67904;SDS011;54709;43.614;1.576;2023-04-03T08:04:22;4.45;;;4.05;;
67904;SDS011;54709;43.614;1.576;2023-04-03T08:06:48;7.88;;;4.53;;
67904;SDS011;54709;43.614;1.576;2023-04-03T08:09:14;6.15;;;4.28;;
67904;SDS011;54709;43.614;1.576;2023-04-03T08:11:40;6.63;;;4.00;;
67904;SDS011;54709;43.614;1.576;2023-04-03T08:14:06;8.60;;;4.05;;
67904;SDS011;54709;43.614;1.576;2023-04-03T08:16:32;4.57;;;3.78;;
67904;SDS011;54709;43.614;1.576;2023-04-03T08:18:57;6.30;;;4.40;;
67904;SDS011;54709;43.614;1.576;2023-04-03T08:21:23;8.63;;;4.32;;
67904;SDS011;54709;43.614;1.576;2023-04-03T08:23:49;6.97;;;4.50;;
67904;SDS011;54709;43.614;1.576;2023-04-03T08:26:19;7.88;;;4.05;;
67904;SDS011;54709;43.614;1.576;2023-04-03T08:28:46;7.63;;;3.80;;
67904;SDS011;54709;43.614;1.576;2023-04-03T08:31:13;6.22;;;3.90;;
67904;SDS011;54709;43.614;1.576;2023-04-03T08:33:40;4.88;;;3.28;;
67904;SDS011;54709;43.614;1.576;2023-04-03T08:36:07;5.00;;;2.90;;
67904;SDS011;54709;43.614;1.576;2023-04-03T08:38:40;6.05;;;3.20;;
67904;SDS011;54709;43.614;1.576;2023-04-03T08:54:30;4.82;;;2.97;;
67904;SDS011;54709;43.614;1.576;2023-04-03T08:56:58;6.43;;;3.15;;
67904;SDS011;54709;43.614;1.576;2023-04-03T08:59:27;8.10;;;3.10;;
67904;SDS011;54709;43.614;1.576;2023-04-03T09:01:54;5.13;;;2.88;;
67904;SDS011;54709;43.614;1.576;2023-04-03T09:04:21;5.45;;;2.97;;
67904;SDS011;54709;43.614;1.576;2023-04-03T09:06:52;4.35;;;2.95;;
67904;SDS011;54709;43.614;1.576;2023-04-03T09:23:01;5.55;;;2.20;;
67904;SDS011;54709;43.614;1.576;2023-04-03T09:25:39;3.80;;;2.30;;
67904;SDS011;54709;43.614;1.576;2023-04-03T09:28:05;3.95;;;2.22;;
67904;SDS011;54709;43.614;1.576;2023-04-03T09:30:34;3.28;;;2.33;;
67904;SDS011;54709;43.614;1.576;2023-04-03T09:33:01;4.45;;;2.20;;
67904;SDS011;54709;43.614;1.576;2023-04-03T09:35:27;4.93;;;2.75;;
67904;SDS011;54709;43.614;1.576;2023-04-03T09:42:50;11.07;;;2.80;;
67904;SDS011;54709;43.614;1.576;2023-04-03T09:45:23;4.38;;;2.20;;
67904;SDS011;54709;43.614;1.576;2023-04-03T09:53:36;5.32;;;2.40;;
67904;SDS011;54709;43.614;1.576;2023-04-03T09:56:25;3.80;;;2.30;;
67904;SDS011;54709;43.614;1.576;2023-04-03T10:01:28;2.95;;;1.75;;
67904;SDS011;54709;43.614;1.576;2023-04-03T10:04:03;4.72;;;2.03;;
67904;SDS011;54709;43.614;1.576;2023-04-03T10:06:39;5.68;;;2.00;;
67904;SDS011;54709;43.614;1.576;2023-04-03T10:09:28;3.97;;;2.17;;
67904;SDS011;54709;43.614;1.576;2023-04-03T10:12:07;4.05;;;1.92;;
67904;SDS011;54709;43.614;1.576;2023-04-03T10:14:37;3.63;;;1.83;;
67904;SDS011;54709;43.614;1.576;2023-04-03T10:25:10;6.05;;;1.92;;
67904;SDS011;54709;43.614;1.576;2023-04-03T10:33:01;5.32;;;1.38;;
67904;SDS011;54709;43.614;1.576;2023-04-03T10:35:48;2.78;;;1.35;;
67904;SDS011;54709;43.614;1.576;2023-04-03T10:46:51;5.45;;;1.60;;
67904;SDS011;54709;43.614;1.576;2023-04-03T10:49:40;5.97;;;1.60;;
67904;SDS011;54709;43.614;1.576;2023-04-03T10:52:20;8.75;;;2.25;;
67904;SDS011;54709;43.614;1.576;2023-04-03T10:57:38;5.82;;;1.80;;
67904;SDS011;54709;43.614;1.576;2023-04-03T11:00:06;4.30;;;1.73;;
67904;SDS011;54709;43.614;1.576;2023-04-03T11:08:03;3.67;;;1.60;;
67904;SDS011;54709;43.614;1.576;2023-04-03T11:10:47;4.82;;;1.60;;
67904;SDS011;54709;43.614;1.576;2023-04-03T11:13:16;3.08;;;1.50;;
67904;SDS011;54709;43.614;1.576;2023-04-03T11:15:44;3.10;;;1.60;;
67904;SDS011;54709;43.614;1.576;2023-04-03T11:18:47;4.72;;;1.70;;
67904;SDS011;54709;43.614;1.576;2023-04-03T11:21:12;6.25;;;1.80;;
67904;SDS011;54709;43.614;1.576;2023-04-03T11:23:42;3.80;;;1.45;;
67904;SDS011;54709;43.614;1.576;2023-04-03T11:26:19;2.83;;;1.50;;
67904;SDS011;54709;43.614;1.576;2023-04-03T11:28:50;3.58;;;1.40;;
67904;SDS011;54709;43.614;1.576;2023-04-03T11:36:41;5.13;;;1.63;;
67904;SDS011;54709;43.614;1.576;2023-04-03T11:41:54;3.50;;;1.15;;
67904;SDS011;54709;43.614;1.576;2023-04-03T11:44:38;2.90;;;1.33;;
67904;SDS011;54709;43.614;1.576;2023-04-03T11:47:07;2.85;;;1.40;;
67904;SDS011;54709;43.614;1.576;2023-04-03T11:49:59;1.80;;;1.13;;
67904;SDS011;54709;43.614;1.576;2023-04-03T12:05:47;5.22;;;1.50;;
67904;SDS011;54709;43.614;1.576;2023-04-03T12:26:43;3.33;;;1.38;;
67904;SDS011;54709;43.614;1.576;2023-04-03T12:29:24;2.40;;;1.17;;
67904;SDS011;54709;43.614;1.576;2023-04-03T12:45:59;2.58;;;1.30;;
67904;SDS011;54709;43.614;1.576;2023-04-03T12:48:29;5.45;;;1.55;;
67904;SDS011;54709;43.614;1.576;2023-04-03T12:51:20;2.08;;;1.40;;
67904;SDS011;54709;43.614;1.576;2023-04-03T12:53:57;3.90;;;1.40;;
67904;SDS011;54709;43.614;1.576;2023-04-03T12:56:29;3.20;;;1.40;;
67904;SDS011;54709;43.614;1.576;2023-04-03T12:59:38;5.03;;;1.60;;
67904;SDS011;54709;43.614;1.576;2023-04-03T13:01:58;4.18;;;1.67;;
67904;SDS011;54709;43.614;1.576;2023-04-03T13:04:24;5.10;;;1.70;;
67904;SDS011;54709;43.614;1.576;2023-04-03T13:06:50;3.67;;;1.35;;
67904;SDS011;54709;43.614;1.576;2023-04-03T13:11:48;4.47;;;1.58;;
67904;SDS011;54709;43.614;1.576;2023-04-03T13:14:19;3.60;;;1.70;;
67904;SDS011;54709;43.614;1.576;2023-04-03T13:17:20;3.25;;;1.40;;
67904;SDS011;54709;43.614;1.576;2023-04-03T13:19:39;3.88;;;1.70;;
67904;SDS011;54709;43.614;1.576;2023-04-03T13:22:26;4.72;;;1.63;;
67904;SDS011;54709;43.614;1.576;2023-04-03T13:24:54;3.38;;;1.50;;
67904;SDS011;54709;43.614;1.576;2023-04-03T13:27:20;2.47;;;1.42;;
67904;SDS011;54709;43.614;1.576;2023-04-03T13:29:50;3.47;;;1.40;;
67904;SDS011;54709;43.614;1.576;2023-04-03T13:32:18;5.28;;;1.70;;
67904;SDS011;54709;43.614;1.576;2023-04-03T13:34:45;3.08;;;1.55;;
67904;SDS011;54709;43.614;1.576;2023-04-03T13:37:33;5.57;;;2.10;;
67904;SDS011;54709;43.614;1.576;2023-04-03T13:42:27;4.18;;;1.50;;
67904;SDS011;54709;43.614;1.576;2023-04-03T13:47:42;4.35;;;1.50;;
67904;SDS011;54709;43.614;1.576;2023-04-03T13:50:14;3.55;;;1.35;;
67904;SDS011;54709;43.614;1.576;2023-04-03T13:52:52;4.68;;;1.52;;
67904;SDS011;54709;43.614;1.576;2023-04-03T13:55:29;5.18;;;1.80;;
67904;SDS011;54709;43.614;1.576;2023-04-03T13:58:16;7.00;;;1.70;;
67904;SDS011;54709;43.614;1.576;2023-04-03T14:00:51;3.88;;;1.60;;
67904;SDS011;54709;43.614;1.576;2023-04-03T14:06:08;3.65;;;1.40;;
67904;SDS011;54709;43.614;1.576;2023-04-03T14:08:36;5.35;;;1.58;;
67904;SDS011;54709;43.614;1.576;2023-04-03T14:11:01;5.72;;;1.60;;
67904;SDS011;54709;43.614;1.576;2023-04-03T14:13:29;4.82;;;1.55;;
67904;SDS011;54709;43.614;1.576;2023-04-03T14:15:55;4.85;;;1.58;;
67904;SDS011;54709;43.614;1.576;2023-04-03T14:18:20;4.47;;;1.60;;
67904;SDS011;54709;43.614;1.576;2023-04-03T14:20:46;4.03;;;1.45;;
67904;SDS011;54709;43.614;1.576;2023-04-03T14:23:12;2.80;;;1.73;;
67904;SDS011;54709;43.614;1.576;2023-04-03T14:25:38;5.72;;;1.55;;
67904;SDS011;54709;43.614;1.576;2023-04-03T14:28:21;4.65;;;1.50;;
67904;SDS011;54709;43.614;1.576;2023-04-03T14:30:47;3.88;;;1.60;;
67904;SDS011;54709;43.614;1.576;2023-04-03T14:33:16;4.47;;;1.55;;
67904;SDS011;54709;43.614;1.576;2023-04-03T14:35:44;3.90;;;1.73;;
67904;SDS011;54709;43.614;1.576;2023-04-03T14:38:26;5.25;;;1.70;;
67904;SDS011;54709;43.614;1.576;2023-04-03T14:40:53;3.25;;;1.67;;
67904;SDS011;54709;43.614;1.576;2023-04-03T14:43:19;4.65;;;1.60;;
67904;SDS011;54709;43.614;1.576;2023-04-03T14:45:47;3.75;;;1.75;;
67904;SDS011;54709;43.614;1.576;2023-04-03T14:48:18;4.15;;;1.73;;
67904;SDS011;54709;43.614;1.576;2023-04-03T14:50:46;4.18;;;1.55;;
67904;SDS011;54709;43.614;1.576;2023-04-03T14:53:12;3.20;;;1.55;;
67904;SDS011;54709;43.614;1.576;2023-04-03T14:55:39;5.55;;;2.13;;
67904;SDS011;54709;43.614;1.576;2023-04-03T14:58:08;3.83;;;1.80;;
67904;SDS011;54709;43.614;1.576;2023-04-03T15:00:37;4.20;;;1.83;;
67904;SDS011;54709;43.614;1.576;2023-04-03T15:03:02;4.13;;;1.70;;
67904;SDS011;54709;43.614;1.576;2023-04-03T15:05:28;6.20;;;2.38;;
67904;SDS011;54709;43.614;1.576;2023-04-03T15:07:54;4.15;;;1.70;;
67904;SDS011;54709;43.614;1.576;2023-04-03T15:10:21;3.35;;;1.52;;
67904;SDS011;54709;43.614;1.576;2023-04-03T15:12:49;4.05;;;1.60;;
67904;SDS011;54709;43.614;1.576;2023-04-03T15:15:15;4.80;;;1.60;;
67904;SDS011;54709;43.614;1.576;2023-04-03T15:17:42;7.65;;;1.73;;
67904;SDS011;54709;43.614;1.576;2023-04-03T15:20:12;5.63;;;1.92;;
67904;SDS011;54709;43.614;1.576;2023-04-03T15:22:39;4.33;;;1.77;;
67904;SDS011;54709;43.614;1.576;2023-04-03T15:25:04;6.07;;;1.98;;
67904;SDS011;54709;43.614;1.576;2023-04-03T15:27:30;4.70;;;1.80;;
67904;SDS011;54709;43.614;1.576;2023-04-03T15:29:55;3.58;;;1.60;;
67904;SDS011;54709;43.614;1.576;2023-04-03T15:32:21;3.72;;;1.80;;
67904;SDS011;54709;43.614;1.576;2023-04-03T15:34:46;4.25;;;1.67;;
67904;SDS011;54709;43.614;1.576;2023-04-03T15:37:12;5.18;;;1.65;;
67904;SDS011;54709;43.614;1.576;2023-04-03T15:39:37;5.00;;;1.52;;
67904;SDS011;54709;43.614;1.576;2023-04-03T15:42:02;3.55;;;1.70;;
67904;SDS011;54709;43.614;1.576;2023-04-03T15:44:31;3.80;;;1.52;;
67904;SDS011;54709;43.614;1.576;2023-04-03T15:46:58;6.78;;;2.65;;
67904;SDS011;54709;43.614;1.576;2023-04-03T15:49:24;5.53;;;2.85;;
67904;SDS011;54709;43.614;1.576;2023-04-03T15:51:49;7.45;;;2.95;;
67904;SDS011;54709;43.614;1.576;2023-04-03T15:54:15;4.15;;;2.03;;
67904;SDS011;54709;43.614;1.576;2023-04-03T15:56:41;5.30;;;2.25;;
67904;SDS011;54709;43.614;1.576;2023-04-03T15:59:06;2.35;;;1.50;;
67904;SDS011;54709;43.614;1.576;2023-04-03T16:01:32;3.17;;;1.90;;
67904;SDS011;54709;43.614;1.576;2023-04-03T16:03:57;7.15;;;1.80;;
67904;SDS011;54709;43.614;1.576;2023-04-03T16:06:23;5.82;;;3.10;;
67904;SDS011;54709;43.614;1.576;2023-04-03T16:08:49;5.55;;;1.42;;
67904;SDS011;54709;43.614;1.576;2023-04-03T16:11:15;3.00;;;1.65;;
67904;SDS011;54709;43.614;1.576;2023-04-03T16:13:40;4.78;;;1.60;;
67904;SDS011;54709;43.614;1.576;2023-04-03T16:16:07;3.45;;;1.63;;
67904;SDS011;54709;43.614;1.576;2023-04-03T16:18:32;3.65;;;1.50;;
67904;SDS011;54709;43.614;1.576;2023-04-03T16:20:59;2.78;;;1.50;;
67904;SDS011;54709;43.614;1.576;2023-04-03T16:23:25;2.95;;;1.45;;
67904;SDS011;54709;43.614;1.576;2023-04-03T16:25:50;3.60;;;1.48;;
67904;SDS011;54709;43.614;1.576;2023-04-03T16:28:15;2.58;;;1.55;;
67904;SDS011;54709;43.614;1.576;2023-04-03T16:30:42;2.67;;;1.42;;
67904;SDS011;54709;43.614;1.576;2023-04-03T16:33:09;4.38;;;1.58;;
67904;SDS011;54709;43.614;1.576;2023-04-03T16:35:35;3.00;;;1.33;;
67904;SDS011;54709;43.614;1.576;2023-04-03T16:38:00;3.38;;;1.30;;
67904;SDS011;54709;43.614;1.576;2023-04-03T16:40:25;3.95;;;1.73;;
67904;SDS011;54709;43.614;1.576;2023-04-03T16:42:51;3.17;;;1.60;;
67904;SDS011;54709;43.614;1.576;2023-04-03T16:45:16;2.60;;;1.58;;
67904;SDS011;54709;43.614;1.576;2023-04-03T16:47:42;4.22;;;1.80;;
67904;SDS011;54709;43.614;1.576;2023-04-03T16:50:07;4.50;;;1.70;;
67904;SDS011;54709;43.614;1.576;2023-04-03T16:52:33;4.97;;;2.60;;
67904;SDS011;54709;43.614;1.576;2023-04-03T16:54:58;3.75;;;1.65;;
67904;SDS011;54709;43.614;1.576;2023-04-03T16:57:24;6.40;;;3.10;;
67904;SDS011;54709;43.614;1.576;2023-04-03T16:59:50;4.05;;;1.83;;
67904;SDS011;54709;43.614;1.576;2023-04-03T17:02:16;3.22;;;1.67;;
67904;SDS011;54709;43.614;1.576;2023-04-03T17:04:41;3.28;;;1.80;;
67904;SDS011;54709;43.614;1.576;2023-04-03T17:07:07;4.25;;;2.60;;
67904;SDS011;54709;43.614;1.576;2023-04-03T17:09:32;3.40;;;2.10;;
67904;SDS011;54709;43.614;1.576;2023-04-03T17:11:58;4.10;;;2.00;;
67904;SDS011;54709;43.614;1.576;2023-04-03T17:14:24;3.42;;;1.60;;
67904;SDS011;54709;43.614;1.576;2023-04-03T17:16:50;4.85;;;1.73;;